If you wish to contribute or participate in the discussions about articles you are invited to join SKYbrary as a registered user

 Actions

Amborovy Airport

From SKYbrary Wiki

FMNM
Airport
ICAO: FMNM – IATA: MJN
Summary
Name Amborovy Airport
Region Africa
Territory Madagascar MG.gif
Location Amborovy, Boeny
Serving Mahajanga
Elevation 26.518 m
87 ft26.518 m
Coordinates 15° 40' 0.98" S, 46° 21' 6.01" E
Runways
Designator Length Width Surface ROPS
14/32 2200 m7,217.848 ft
45 m147.638 ft
ASP /


METAR
Observation FMNM 121000Z 13009KT 070V200 CAVOK 31/08 Q1015 NOSIG
Station Majunga
Date/Time 12 August 2020 10:00:00
Wind direction 130°
Wind speed 09 kts
Lowest cloud amount clouds and visibility OK
Temperature 31°C
Dew point 8°C
Humidity 23%
QNH 1015 hPa
Weather condition n/a

Amborovy Airport, also known as Philibert Tsiranana Airport, is an airport in Mahajanga, Madagascar.

Climatology

Tropical savanna climate (Köppen climate classification Aw)

Maps

Terrain

Loading map...

Airport Layout

Loading map...


Accidents & Serious Incidents at or in vicinity of FMNM

None on SKYbrary